Time;durP1;ratioP1;P1;durP2;ratioP2;P2;SDS_P1;SDS_P2;PMS_P1;PMS_P2;Temp;Humidity;BMP_temperature;BMP_pressure;BME280_temperature;BME280_humidity;BME280_pressure;Samples;Min_cycle;Max_cycle;Signal;HPM_P1;HPM_P2
2021/05/21 00:01:41;;;;;;;4.30;2.35;;;15.00;66.70;;;;;;5049647;28;20056;-70
2021/05/21 00:04:26;;;;;;;2.55;2.35;;;15.00;66.90;;;;;;5041377;28;20044;-70
2021/05/21 00:07:11;;;;;;;4.43;2.90;;;15.00;67.40;;;;;;5018992;28;20508;-69
2021/05/21 00:09:55;;;;;;;4.22;3.08;;;15.00;67.60;;;;;;5029878;28;20540;-69
2021/05/21 00:12:39;;;;;;;3.75;2.50;;;15.00;68.10;;;;;;5028648;28;20160;-69
2021/05/21 00:15:23;;;;;;;3.50;2.58;;;15.00;68.40;;;;;;5033096;28;20462;-69
2021/05/21 00:18:07;;;;;;;5.18;2.55;;;15.00;68.60;;;;;;5031665;28;20091;-69
2021/05/21 00:20:51;;;;;;;3.80;2.60;;;15.00;68.90;;;;;;5043229;28;20397;-69
2021/05/21 00:23:35;;;;;;;4.30;2.47;;;15.00;69.10;;;;;;5033647;28;20113;-69
2021/05/21 00:26:19;;;;;;;3.22;2.45;;;15.00;69.40;;;;;;5033874;28;20621;-69
2021/05/21 00:29:03;;;;;;;3.92;2.67;;;14.90;69.60;;;;;;5033500;28;20032;-70
2021/05/21 00:31:47;;;;;;;4.18;2.55;;;15.00;69.90;;;;;;5033767;28;20151;-70
2021/05/21 00:34:32;;;;;;;4.35;2.83;;;15.00;70.10;;;;;;5032081;28;20045;-70
2021/05/21 00:37:16;;;;;;;5.53;2.63;;;15.00;70.20;;;;;;5034018;28;20056;-69
2021/05/21 00:40:00;;;;;;;3.70;2.65;;;14.90;70.40;;;;;;5032190;28;20401;-69
2021/05/21 00:42:44;;;;;;;4.15;2.65;;;14.90;70.80;;;;;;5028313;28;20410;-69
2021/05/21 00:45:28;;;;;;;4.50;2.97;;;14.90;71.10;;;;;;5033453;28;20787;-69
2021/05/21 00:48:12;;;;;;;3.60;2.60;;;14.90;71.50;;;;;;5032833;28;20028;-69
2021/05/21 00:50:56;;;;;;;4.45;2.80;;;14.90;71.70;;;;;;5013542;28;20032;-69
2021/05/21 00:53:41;;;;;;;4.38;2.63;;;14.90;71.80;;;;;;5025901;28;20043;-69
2021/05/21 00:56:25;;;;;;;4.03;2.80;;;14.90;72.00;;;;;;5013662;28;20052;-69
2021/05/21 00:59:10;;;;;;;3.80;2.63;;;14.90;72.20;;;;;;5024157;28;20087;-69
2021/05/21 01:01:55;;;;;;;5.43;2.92;;;14.90;72.60;;;;;;5031589;28;20053;-69
2021/05/21 01:04:39;;;;;;;4.47;2.92;;;14.90;72.80;;;;;;5034923;28;20036;-69
2021/05/21 01:07:24;;;;;;;4.53;2.55;;;14.90;72.80;;;;;;5033007;28;20091;-69
2021/05/21 01:10:09;;;;;;;4.28;3.03;;;14.90;73.10;;;;;;5031790;28;20044;-69
2021/05/21 01:12:53;;;;;;;5.30;2.92;;;14.90;73.30;;;;;;5032821;28;20095;-69
2021/05/21 01:15:18;;;;;;;5.35;2.75;;;14.80;73.50;;;;;;5031120;28;20037;-69
2021/05/21 01:18:04;;;;;;;4.15;3.00;;;14.80;74.00;;;;;;5031138;28;20051;-69
2021/05/21 01:20:48;;;;;;;4.18;2.92;;;14.80;74.20;;;;;;5032587;28;20044;-69
2021/05/21 01:23:32;;;;;;;5.28;3.10;;;14.80;74.30;;;;;;5031658;28;20516;-71
2021/05/21 01:26:16;;;;;;;3.40;2.80;;;14.80;74.60;;;;;;5032568;28;20040;-71
2021/05/21 01:29:01;;;;;;;3.88;2.75;;;14.70;74.90;;;;;;5030408;28;20044;-71
2021/05/21 01:31:45;;;;;;;3.20;2.58;;;14.70;75.20;;;;;;5033147;28;20068;-71
2021/05/21 01:34:29;;;;;;;4.70;3.55;;;14.70;75.60;;;;;;5032157;28;20510;-71
2021/05/21 01:37:14;;;;;;;4.82;3.05;;;14.70;75.90;;;;;;5028879;28;20046;-71
2021/05/21 01:40:00;;;;;;;5.45;2.90;;;14.70;76.30;;;;;;5012572;28;20512;-71
2021/05/21 01:42:44;;;;;;;4.45;2.88;;;14.60;76.70;;;;;;5012527;28;20049;-71
2021/05/21 01:45:28;;;;;;;5.95;3.45;;;14.70;76.90;;;;;;5034348;28;20060;-71
2021/05/21 01:48:13;;;;;;;6.20;3.17;;;14.60;77.10;;;;;;5030544;28;20036;-71
2021/05/21 01:51:03;;;;;;;6.53;2.90;;;14.60;77.30;;;;;;5012392;28;20065;-70
2021/05/21 01:53:46;;;;;;;4.80;2.97;;;14.60;77.60;;;;;;5029155;28;20091;-69
2021/05/21 01:56:30;;;;;;;3.53;2.80;;;14.50;77.90;;;;;;5025153;28;20045;-69
2021/05/21 01:59:15;;;;;;;7.55;3.20;;;14.50;78.10;;;;;;5034444;28;20550;-72
2021/05/21 02:01:58;;;;;;;4.07;3.00;;;14.50;78.40;;;;;;5050526;28;20064;-69
2021/05/21 02:04:43;;;;;;;3.40;2.35;;;14.50;78.70;;;;;;5029270;28;20040;-70
2021/05/21 02:07:26;;;;;;;4.07;2.90;;;14.50;78.70;;;;;;5046450;28;20493;-70
2021/05/21 02:10:12;;;;;;;3.55;2.70;;;14.40;78.90;;;;;;5046788;28;20127;-70
2021/05/21 02:12:56;;;;;;;3.75;2.60;;;14.40;79.10;;;;;;5038488;28;20040;-70
2021/05/21 02:15:39;;;;;;;6.63;2.95;;;14.40;79.30;;;;;;5031506;28;20456;-70
2021/05/21 02:18:24;;;;;;;4.18;2.90;;;14.40;79.60;;;;;;5031087;28;20041;-70
2021/05/21 02:21:08;;;;;;;5.78;2.60;;;14.40;79.90;;;;;;5011765;28;20044;-71
2021/05/21 02:23:52;;;;;;;4.45;2.88;;;14.40;80.10;;;;;;5028682;28;20056;-71
2021/05/21 02:26:36;;;;;;;3.72;2.72;;;14.40;80.30;;;;;;5044217;28;20452;-71
2021/05/21 02:29:20;;;;;;;3.80;2.80;;;14.40;80.40;;;;;;5025392;28;20424;-71
2021/05/21 02:32:04;;;;;;;3.80;2.63;;;14.40;80.40;;;;;;5050197;28;20554;-71
2021/05/21 02:34:49;;;;;;;3.45;2.40;;;14.40;80.60;;;;;;5037963;28;20362;-71
2021/05/21 02:37:33;;;;;;;3.78;2.88;;;14.40;80.80;;;;;;5031969;28;20035;-71
2021/05/21 02:40:17;;;;;;;4.85;2.78;;;14.40;80.90;;;;;;5047092;28;20281;-71
2021/05/21 02:43:01;;;;;;;5.47;2.95;;;14.30;81.00;;;;;;5028379;28;20551;-71
2021/05/21 02:45:45;;;;;;;4.05;2.78;;;14.30;81.20;;;;;;5051023;28;20187;-70
2021/05/21 02:48:28;;;;;;;4.97;2.90;;;14.30;81.30;;;;;;5036968;28;20497;-70
2021/05/21 02:51:12;;;;;;;3.38;2.67;;;14.30;81.30;;;;;;5031438;28;20048;-71
2021/05/21 02:53:56;;;;;;;4.18;2.58;;;14.30;81.60;;;;;;5035721;28;20401;-71
2021/05/21 02:56:41;;;;;;;3.47;2.72;;;14.30;81.60;;;;;;5011662;28;20509;-71
2021/05/21 02:59:24;;;;;;;3.38;2.40;;;14.30;81.70;;;;;;5041100;28;20031;-71
2021/05/21 03:02:08;;;;;;;4.07;2.95;;;14.30;81.80;;;;;;5036869;28;20055;-71
2021/05/21 03:04:53;;;;;;;3.58;2.58;;;14.30;81.90;;;;;;5026392;28;20032;-72
2021/05/21 03:07:37;;;;;;;4.28;2.67;;;14.30;82.20;;;;;;5029539;28;20151;-70
2021/05/21 03:10:28;;;;;;;4.03;2.88;;;14.30;82.20;;;;;;5031268;28;20067;-70
2021/05/21 03:13:11;;;;;;;4.18;2.80;;;14.20;82.40;;;;;;5023491;28;20088;-71
2021/05/21 03:15:52;;;;;;;4.28;2.72;;;14.20;82.40;;;;;;5015719;28;20387;-72
2021/05/21 03:18:36;;;;;;;3.97;2.97;;;14.20;82.60;;;;;;5023211;28;20035;-73
2021/05/21 03:21:21;;;;;;;4.53;3.00;;;14.20;82.60;;;;;;5031352;28;20164;-71
2021/05/21 03:24:05;;;;;;;4.43;3.08;;;14.20;82.80;;;;;;5014194;28;20057;-71
2021/05/21 03:26:50;;;;;;;;;;;14.20;83.00;;;;;;5011628;28;20037;-71
2021/05/21 03:29:34;;;;;;;3.72;2.70;;;14.10;82.20;;;;;;5030264;28;20391;-70
2021/05/21 03:32:18;;;;;;;4.63;2.92;;;14.10;82.90;;;;;;5030057;28;20056;-71
2021/05/21 03:35:03;;;;;;;4.45;2.80;;;14.10;83.20;;;;;;5031282;28;20144;-69
2021/05/21 03:37:48;;;;;;;3.15;2.63;;;14.10;83.30;;;;;;5024698;28;20049;-69
2021/05/21 03:40:33;;;;;;;4.13;3.00;;;14.20;83.40;;;;;;5011519;28;20036;-69
2021/05/21 03:43:18;;;;;;;3.80;2.72;;;14.20;83.50;;;;;;5032715;28;20044;-69
2021/05/21 03:46:02;;;;;;;6.00;2.83;;;14.20;83.60;;;;;;5043452;28;20513;-70
2021/05/21 03:48:46;;;;;;;4.15;2.70;;;14.20;83.50;;;;;;5029377;28;20095;-70
2021/05/21 03:51:31;;;;;;;5.88;3.25;;;14.30;83.60;;;;;;5041665;28;20110;-70
2021/05/21 03:54:15;;;;;;;4.18;2.85;;;14.30;83.70;;;;;;5033359;28;20630;-70
2021/05/21 03:56:59;;;;;;;3.30;2.60;;;14.30;83.90;;;;;;5046196;28;20124;-70
2021/05/21 03:59:43;;;;;;;4.70;2.70;;;14.30;83.90;;;;;;5014509;28;20044;-70
2021/05/21 04:02:27;;;;;;;6.90;3.17;;;14.40;84.00;;;;;;5030263;28;20057;-71
2021/05/21 04:05:11;;;;;;;4.25;3.00;;;14.40;83.90;;;;;;5034206;28;20187;-69
2021/05/21 04:07:55;;;;;;;7.07;3.13;;;14.40;83.90;;;;;;5033065;28;20365;-69
2021/05/21 04:10:39;;;;;;;3.97;2.90;;;14.40;83.80;;;;;;5028089;28;20180;-69
2021/05/21 04:13:24;;;;;;;3.60;2.50;;;14.40;83.70;;;;;;5029142;28;20071;-69
2021/05/21 04:16:08;;;;;;;5.43;2.90;;;14.40;83.70;;;;;;5041132;28;20373;-68
2021/05/21 04:18:53;;;;;;;4.05;2.83;;;14.40;83.70;;;;;;5034816;28;20040;-69
2021/05/21 04:21:37;;;;;;;4.15;2.90;;;14.40;83.70;;;;;;5053243;28;20028;-68
2021/05/21 04:24:21;;;;;;;3.87;2.60;;;14.30;83.70;;;;;;5033049;28;20110;-68
2021/05/21 04:27:06;;;;;;;3.85;2.70;;;14.30;83.80;;;;;;5033032;28;20103;-70
2021/05/21 04:29:50;;;;;;;3.72;2.88;;;14.40;84.00;;;;;;5029124;28;20565;-70
2021/05/21 04:32:34;;;;;;;4.03;2.70;;;14.40;84.00;;;;;;5031526;28;20056;-70
2021/05/21 04:35:21;;;;;;;3.65;3.08;;;14.40;84.30;;;;;;5034184;28;20075;-71
2021/05/21 04:38:05;;;;;;;3.45;2.78;;;14.40;84.40;;;;;;5032309;28;20520;-71
2021/05/21 04:40:49;;;;;;;3.50;2.47;;;14.40;84.40;;;;;;5013671;28;20095;-71
2021/05/21 04:43:33;;;;;;;3.95;3.10;;;14.40;84.30;;;;;;5026784;28;20083;-70
2021/05/21 04:46:17;;;;;;;6.22;2.90;;;14.40;84.50;;;;;;5026298;28;20049;-71
2021/05/21 04:49:01;;;;;;;4.53;3.25;;;14.50;84.60;;;;;;5028522;28;20036;-69
2021/05/21 04:51:45;;;;;;;3.63;2.67;;;14.50;84.50;;;;;;5033150;28;20052;-70
2021/05/21 04:54:30;;;;;;;6.45;2.65;;;14.50;84.50;;;;;;5033352;28;20040;-70
2021/05/21 04:57:14;;;;;;;4.03;2.58;;;14.50;84.50;;;;;;5031544;28;20036;-70
2021/05/21 04:59:58;;;;;;;4.22;2.80;;;14.50;84.50;;;;;;5035928;28;20087;-70
2021/05/21 05:02:43;;;;;;;4.07;2.80;;;14.50;84.40;;;;;;5030810;28;20110;-70
2021/05/21 05:05:26;;;;;;;3.30;2.70;;;14.60;84.40;;;;;;5013520;28;20493;-70
2021/05/21 05:08:14;;;;;;;4.22;2.72;;;14.60;84.30;;;;;;5018214;28;20112;-71
2021/05/21 05:10:58;;;;;;;3.50;2.78;;;14.60;84.40;;;;;;5033050;28;20037;-70
2021/05/21 05:13:42;;;;;;;4.82;2.35;;;14.60;84.40;;;;;;5039261;28;20043;-70
2021/05/21 05:16:26;;;;;;;6.25;3.13;;;14.60;84.60;;;;;;5026342;28;20185;-70
2021/05/21 05:19:10;;;;;;;6.20;3.08;;;14.60;84.30;;;;;;5031864;28;20040;-70
2021/05/21 05:21:57;;;;;;;4.55;3.00;;;14.70;84.40;;;;;;5032953;28;20385;-70
2021/05/21 05:24:41;;;;;;;4.47;3.08;;;14.70;84.40;;;;;;5048124;28;20094;-70
2021/05/21 05:27:25;;;;;;;3.55;2.45;;;14.70;84.50;;;;;;5046199;28;20048;-70
2021/05/21 05:30:10;;;;;;;4.78;2.70;;;14.70;84.50;;;;;;5032504;28;20598;-70
2021/05/21 05:32:54;;;;;;;6.03;3.10;;;14.80;84.30;;;;;;5026666;28;20068;-71
2021/05/21 05:35:38;;;;;;;5.60;2.70;;;14.80;84.10;;;;;;5011806;28;20049;-70
2021/05/21 05:38:22;;;;;;;6.97;3.07;;;14.90;84.20;;;;;;5025519;28;20615;-70
2021/05/21 05:41:06;;;;;;;5.75;2.97;;;14.90;84.30;;;;;;5031471;28;20759;-71
2021/05/21 05:43:51;;;;;;;7.05;2.72;;;15.00;84.30;;;;;;5020704;28;20129;-70
2021/05/21 05:46:35;;;;;;;5.30;2.60;;;15.00;84.00;;;;;;5029012;28;20414;-70
2021/05/21 05:49:19;;;;;;;6.25;2.75;;;15.10;83.80;;;;;;5031406;28;20125;-70
2021/05/21 05:52:03;;;;;;;4.22;2.67;;;15.10;83.60;;;;;;5029020;28;20045;-71
2021/05/21 05:54:48;;;;;;;7.93;2.95;;;15.10;83.50;;;;;;5011232;28;20028;-71
2021/05/21 05:57:32;;;;;;;3.90;3.05;;;15.20;83.40;;;;;;5022101;28;20165;-70
2021/05/21 06:00:16;;;;;;;4.90;2.90;;;15.30;83.60;;;;;;5028520;28;20376;-70
2021/05/21 06:03:11;;;;;;;4.68;2.78;;;15.30;83.50;;;;;;5029053;28;20096;-70
2021/05/21 06:05:56;;;;;;;5.40;2.20;;;15.40;83.20;;;;;;5029345;28;20053;-71
2021/05/21 06:08:40;;;;;;;4.55;2.60;;;15.40;82.80;;;;;;5038949;28;20035;-71
2021/05/21 06:11:25;;;;;;;4.53;2.80;;;15.50;82.40;;;;;;5052069;28;20614;-70
2021/05/21 06:14:09;;;;;;;3.30;2.42;;;15.60;82.30;;;;;;5045952;28;20101;-70
2021/05/21 06:16:53;;;;;;;5.35;2.70;;;15.70;82.10;;;;;;5051906;28;20044;-70
2021/05/21 06:19:37;;;;;;;3.95;2.40;;;15.80;81.70;;;;;;5046747;28;20056;-70
2021/05/21 06:22:21;;;;;;;5.38;2.47;;;16.00;81.60;;;;;;5016810;28;20479;-70
2021/05/21 06:25:07;;;;;;;4.15;1.98;;;16.10;81.10;;;;;;5012852;28;20044;-70
2021/05/21 06:27:51;;;;;;;3.65;2.28;;;16.20;80.90;;;;;;5032105;28;20076;-70
2021/05/21 06:30:36;;;;;;;4.45;2.20;;;16.30;80.50;;;;;;5029369;28;20041;-72
2021/05/21 06:33:20;;;;;;;4.43;2.33;;;16.50;79.90;;;;;;5039063;28;20704;-73
2021/05/21 06:36:04;;;;;;;3.53;2.17;;;16.70;79.30;;;;;;5029175;28;20048;-69
2021/05/21 06:38:48;;;;;;;7.40;2.00;;;16.90;78.60;;;;;;5026506;28;20040;-69
2021/05/21 06:41:32;;;;;;;5.03;2.08;;;17.00;78.10;;;;;;5029812;28;20040;-69
2021/05/21 06:44:16;;;;;;;3.00;2.05;;;17.10;77.90;;;;;;5026773;28;20087;-70
2021/05/21 06:47:00;;;;;;;6.80;2.08;;;17.30;77.70;;;;;;5026680;28;20072;-70
2021/05/21 06:49:47;;;;;;;5.13;2.57;;;17.40;76.90;;;;;;5010407;28;20080;-70
2021/05/21 06:52:31;;;;;;;3.67;2.10;;;17.50;76.70;;;;;;5024547;28;20080;-70
2021/05/21 06:55:15;;;;;;;4.17;1.97;;;17.50;75.80;;;;;;5024635;28;20583;-70
2021/05/21 06:57:59;;;;;;;3.30;1.88;;;17.60;75.20;;;;;;5019843;28;20083;-71
2021/05/21 07:00:43;;;;;;;4.33;2.30;;;17.70;74.50;;;;;;5027998;28;20040;-70
2021/05/21 07:03:28;;;;;;;5.50;2.20;;;17.70;74.00;;;;;;5025278;28;20049;-69
2021/05/21 07:06:12;;;;;;;4.68;2.22;;;17.80;73.80;;;;;;5020846;28;20058;-70
2021/05/21 07:08:56;;;;;;;4.30;1.90;;;17.90;73.50;;;;;;5024679;28;20120;-68
2021/05/21 07:11:40;;;;;;;5.72;2.00;;;18.00;73.30;;;;;;5013554;28;20041;-68
2021/05/21 07:14:25;;;;;;;4.32;2.00;;;18.00;72.10;;;;;;5029873;28;20033;-68
2021/05/21 07:17:09;;;;;;;3.15;1.70;;;18.20;72.10;;;;;;5025791;28;20117;-68
2021/05/21 07:19:54;;;;;;;3.60;1.60;;;18.30;71.70;;;;;;5027139;28;20045;-69
2021/05/21 07:22:38;;;;;;;5.78;2.10;;;18.40;71.70;;;;;;5013532;28;20527;-68
2021/05/21 07:25:23;;;;;;;4.18;2.08;;;18.60;71.10;;;;;;5013104;28;20037;-68
2021/05/21 07:28:07;;;;;;;5.60;2.78;;;18.70;70.30;;;;;;5030587;28;20086;-70
2021/05/21 07:30:52;;;;;;;3.77;2.43;;;18.90;69.80;;;;;;5029193;28;20418;-70
2021/05/21 07:33:37;;;;;;;3.20;1.77;;;19.10;69.50;;;;;;5020254;28;20044;-69
2021/05/21 07:36:23;;;;;;;3.08;1.50;;;19.20;68.00;;;;;;5033830;28;20095;-70
2021/05/21 07:39:07;;;;;;;3.85;1.58;;;19.40;66.90;;;;;;5027014;28;20821;-69
2021/05/21 07:41:54;;;;;;;3.05;1.70;;;19.60;66.40;;;;;;5033693;28;20464;-70
2021/05/21 07:44:38;;;;;;;4.20;2.10;;;19.70;66.40;;;;;;5027614;28;20509;-70
2021/05/21 07:47:22;;;;;;;2.38;1.60;;;19.80;64.50;;;;;;5028989;28;20132;-70
2021/05/21 07:50:08;;;;;;;3.58;1.80;;;19.90;64.10;;;;;;5034181;28;20159;-70
2021/05/21 07:52:52;;;;;;;2.15;1.30;;;20.00;63.80;;;;;;5030819;28;20044;-70
2021/05/21 07:55:36;;;;;;;4.43;1.60;;;20.00;63.10;;;;;;5026067;28;20037;-69
2021/05/21 07:58:20;;;;;;;3.25;1.50;;;20.10;62.30;;;;;;5027994;28;20437;-69
2021/05/21 08:01:05;;;;;;;2.65;1.30;;;20.10;61.50;;;;;;5014422;28;20074;-69
2021/05/21 08:03:50;;;;;;;2.28;1.35;;;20.00;60.90;;;;;;5022878;28;20511;-70
2021/05/21 08:06:34;;;;;;;8.87;1.60;;;20.00;60.40;;;;;;5028099;28;20052;-70
2021/05/21 08:09:18;;;;;;;3.53;1.48;;;20.10;60.10;;;;;;5022898;28;20076;-70
2021/05/21 08:12:04;;;;;;;8.85;1.60;;;20.10;60.00;;;;;;5016033;28;20045;-69
2021/05/21 08:14:49;;;;;;;2.65;1.55;;;20.00;60.00;;;;;;5019648;28;20072;-69
2021/05/21 08:17:36;;;;;;;3.50;1.63;;;20.00;60.20;;;;;;5029889;28;20068;-69
2021/05/21 08:20:20;;;;;;;3.70;1.60;;;20.00;60.00;;;;;;5020439;28;20104;-69
2021/05/21 08:23:05;;;;;;;8.63;2.00;;;20.00;59.80;;;;;;5027863;28;20041;-69
2021/05/21 08:25:31;;;;;;;5.85;1.48;;;19.90;60.00;;;;;;5021848;28;20149;-69
2021/05/21 08:27:57;;;;;;;3.47;1.63;;;19.90;59.50;;;;;;5032715;28;20030;-68
2021/05/21 08:30:23;;;;;;;5.07;1.60;;;19.90;59.40;;;;;;5023936;28;20025;-70
2021/05/21 08:32:49;;;;;;;2.88;1.65;;;19.90;59.80;;;;;;5025756;28;20080;-71
2021/05/21 08:35:16;;;;;;;3.10;1.48;;;19.90;59.90;;;;;;5034039;28;20033;-71
2021/05/21 08:37:42;;;;;;;2.10;1.30;;;19.90;59.60;;;;;;5029216;28;20025;-69
2021/05/21 08:40:09;;;;;;;2.35;1.42;;;19.90;59.40;;;;;;5028799;28;20022;-69
2021/05/21 08:42:39;;;;;;;5.30;1.63;;;19.90;59.00;;;;;;5021456;28;20030;-67
2021/05/21 08:45:25;;;;;;;7.20;1.88;;;20.00;59.20;;;;;;5022563;28;20048;-68
2021/05/21 08:48:19;;;;;;;5.03;1.55;;;20.00;59.30;;;;;;5025616;28;20058;-70
2021/05/21 08:51:03;;;;;;;2.10;1.27;;;20.10;59.20;;;;;;5017453;28;20040;-69
2021/05/21 08:53:47;;;;;;;4.07;1.48;;;20.20;59.00;;;;;;5030401;28;20044;-69
2021/05/21 08:56:32;;;;;;;7.55;2.75;;;20.40;59.00;;;;;;5015617;28;20037;-69
2021/05/21 08:59:16;;;;;;;5.03;1.90;;;20.40;58.80;;;;;;5030662;28;20041;-68
2021/05/21 09:02:00;;;;;;;8.25;1.98;;;20.60;58.00;;;;;;5022704;28;20052;-68
2021/05/21 09:04:46;;;;;;;3.50;1.45;;;20.70;57.00;;;;;;5031979;28;20394;-68
2021/05/21 09:07:33;;;;;;;4.05;1.52;;;20.70;56.50;;;;;;5023405;28;20124;-68
2021/05/21 09:10:19;;;;;;;2.70;1.30;;;20.70;56.30;;;;;;5025112;28;20088;-68
2021/05/21 09:13:03;;;;;;;2.08;1.20;;;20.80;55.80;;;;;;5024651;28;20060;-68
2021/05/21 09:15:28;;;;;;;5.10;1.77;;;20.90;55.70;;;;;;5018067;28;20037;-67
2021/05/21 09:18:12;;;;;;;4.13;1.73;;;20.90;55.30;;;;;;5024999;28;20842;-68
2021/05/21 09:21:02;;;;;;;5.07;2.05;;;21.00;55.60;;;;;;5015504;28;20072;-68
2021/05/21 09:24:03;;;;;;;2.40;1.20;;;21.10;55.40;;;;;;5018244;28;20174;-68
2021/05/21 09:26:49;;;;;;;9.80;1.77;;;21.20;55.40;;;;;;5019743;28;20040;-69
2021/05/21 09:29:44;;;;;;;5.97;1.70;;;21.30;55.40;;;;;;5031571;28;20503;-69
2021/05/21 09:32:30;;;;;;;2.65;1.48;;;21.50;55.30;;;;;;5017241;28;20044;-69
2021/05/21 09:35:16;;;;;;;6.93;1.95;;;21.60;55.70;;;;;;5027623;28;20125;-69
2021/05/21 09:38:00;;;;;;;4.65;1.33;;;21.60;54.80;;;;;;5022788;28;20072;-68
2021/05/21 09:40:44;;;;;;;4.68;1.23;;;21.60;53.50;;;;;;5021768;28;20037;-69
2021/05/21 09:43:29;;;;;;;3.83;1.00;;;21.60;52.00;;;;;;5019003;28;20049;-68
2021/05/21 09:46:13;;;;;;;3.72;1.23;;;21.60;52.00;;;;;;5023932;28;20052;-69
2021/05/21 09:48:57;;;;;;;4.75;1.30;;;21.50;51.60;;;;;;5024266;28;20504;-71
2021/05/21 09:51:50;;;;;;;5.75;1.42;;;21.60;51.10;;;;;;5012918;28;20402;-71
2021/05/21 09:54:51;;;;;;;4.72;1.30;;;21.60;51.40;;;;;;5030549;28;20037;-71
2021/05/21 09:57:36;;;;;;;2.25;1.30;;;21.60;51.30;;;;;;5016405;28;20128;-71
2021/05/21 10:00:20;;;;;;;5.88;1.20;;;21.60;50.90;;;;;;5013048;28;20052;-70
2021/05/21 10:03:04;;;;;;;2.03;1.03;;;21.60;50.30;;;;;;5016182;28;20048;-69
2021/05/21 10:05:49;;;;;;;3.22;1.13;;;21.50;49.90;;;;;;5017678;28;20639;-70
2021/05/21 10:08:33;;;;;;;1.83;1.10;;;21.50;49.80;;;;;;5029461;28;20228;-70
2021/05/21 10:11:18;;;;;;;4.38;1.27;;;21.60;50.10;;;;;;5023401;28;20079;-71
2021/05/21 10:14:02;;;;;;;3.80;1.45;;;21.60;49.80;;;;;;5026281;28;20048;-70
2021/05/21 10:16:46;;;;;;;4.22;1.30;;;21.60;49.80;;;;;;5026808;28;20115;-71
2021/05/21 10:19:32;;;;;;;3.92;1.45;;;21.60;49.70;;;;;;5032172;28;20040;-71
2021/05/21 10:22:37;;;;;;;4.82;1.25;;;21.70;49.80;;;;;;5030650;28;20130;-71
2021/05/21 10:25:24;;;;;;;2.95;1.17;;;21.80;49.70;;;;;;5030605;28;20032;-71
2021/05/21 10:28:10;;;;;;;4.97;1.30;;;21.90;49.10;;;;;;5027891;28;20090;-70
2021/05/21 10:31:00;;;;;;;2.15;1.13;;;22.00;48.00;;;;;;5031111;28;20044;-71
2021/05/21 10:33:45;;;;;;;1.60;1.00;;;22.00;48.30;;;;;;5026670;28;20481;-71
2021/05/21 10:36:30;;;;;;;3.05;1.95;;;22.10;47.40;;;;;;5014292;28;20393;-71
2021/05/21 10:39:20;;;;;;;3.40;1.20;;;22.10;46.90;;;;;;5029700;28;20076;-71
2021/05/21 10:42:21;;;;;;;3.00;1.13;;;22.10;47.20;;;;;;5030364;28;20036;-71
2021/05/21 10:45:16;;;;;;;2.60;1.15;;;22.10;47.40;;;;;;5027825;28;20040;-71
2021/05/21 10:48:07;;;;;;;4.68;1.20;;;22.10;47.20;;;;;;5031668;28;20051;-70
2021/05/21 10:51:11;;;;;;;3.78;1.10;;;22.20;47.20;;;;;;5030507;28;20091;-69
2021/05/21 10:54:24;;;;;;;1.35;0.98;;;22.20;47.20;;;;;;5029701;28;20044;-70
2021/05/21 10:57:12;;;;;;;1.90;1.13;;;22.20;46.90;;;;;;5030929;28;20125;-71
2021/05/21 10:59:58;;;;;;;3.05;1.00;;;22.20;46.30;;;;;;5028479;28;20036;-71
2021/05/21 11:02:44;;;;;;;3.65;1.10;;;22.30;46.10;;;;;;5029714;28;20068;-71
2021/05/21 11:05:32;;;;;;;2.55;1.08;;;22.30;45.90;;;;;;5035192;28;20087;-71
2021/05/21 11:08:16;;;;;;;2.45;1.20;;;22.30;46.00;;;;;;5028508;28;20056;-71
2021/05/21 11:11:13;;;;;;;2.97;1.10;;;22.40;45.10;;;;;;5034303;28;20036;-71
2021/05/21 11:14:04;;;;;;;3.60;1.27;;;22.40;44.90;;;;;;5029559;28;20380;-71
2021/05/21 11:17:13;;;;;;;2.15;1.20;;;22.50;44.60;;;;;;5033756;28;20160;-79
2021/05/21 11:20:00;;;;;;;8.35;1.17;;;22.40;45.30;;;;;;5034089;28;20056;-79
2021/05/21 11:22:44;;;;;;;4.95;1.27;;;22.50;45.20;;;;;;5034618;28;20084;-78
2021/05/21 11:25:29;;;;;;;7.57;1.53;;;22.60;45.60;;;;;;5028118;28;20535;-77
2021/05/21 11:28:13;;;;;;;6.95;1.52;;;22.60;45.80;;;;;;5026989;28;20361;-80
2021/05/21 11:30:58;;;;;;;2.50;1.67;;;22.60;45.50;;;;;;5033245;28;20036;-78
2021/05/21 11:33:47;;;;;;;1.30;1.08;;;22.70;46.00;;;;;;5033638;28;20555;-77
2021/05/21 11:36:34;;;;;;;5.20;1.80;;;22.80;45.70;;;;;;5026284;28;20397;-78
2021/05/21 11:39:18;;;;;;;5.03;1.30;;;22.80;45.60;;;;;;5035241;28;20037;-77
2021/05/21 11:42:07;;;;;;;2.35;1.00;;;22.90;45.40;;;;;;5033720;28;20504;-78
2021/05/21 11:44:54;;;;;;;4.93;1.52;;;22.90;44.80;;;;;;5032358;28;20044;-78
2021/05/21 11:47:40;;;;;;;4.07;1.30;;;22.80;44.80;;;;;;5028551;28;20052;-76
2021/05/21 11:50:30;;;;;;;2.72;1.30;;;22.80;44.20;;;;;;5031207;28;20488;-80
2021/05/21 11:53:14;;;;;;;5.15;1.27;;;22.80;44.90;;;;;;5031992;28;20440;-79
2021/05/21 11:55:58;;;;;;;2.58;1.02;;;22.90;45.20;;;;;;5027471;28;20526;-77
2021/05/21 11:58:42;;;;;;;4.77;1.30;;;23.00;45.10;;;;;;5028038;28;20044;-77
2021/05/21 12:01:26;;;;;;;2.97;1.25;;;23.10;45.40;;;;;;5026776;28;20345;-70
2021/05/21 12:04:10;;;;;;;2.47;1.25;;;23.10;45.30;;;;;;5031085;28;20048;-75
2021/05/21 12:06:55;;;;;;;1.92;1.17;;;23.10;45.40;;;;;;5050917;28;20080;-77
2021/05/21 12:09:39;;;;;;;5.05;1.50;;;23.10;45.60;;;;;;5037974;28;20039;-78
2021/05/21 12:12:25;;;;;;;5.88;1.75;;;23.10;45.80;;;;;;5031819;28;20076;-78
2021/05/21 12:15:11;;;;;;;3.58;1.70;;;23.10;45.90;;;;;;5019879;28;20033;-77
2021/05/21 12:17:55;;;;;;;5.18;1.50;;;23.20;45.90;;;;;;5020452;28;20045;-78
2021/05/21 12:20:49;;;;;;;6.60;1.50;;;23.10;45.00;;;;;;5023091;28;20389;-78
2021/05/21 12:23:40;;;;;;;5.45;1.25;;;23.10;45.00;;;;;;5029484;28;20102;-78
2021/05/21 12:26:28;;;;;;;3.00;1.25;;;23.10;44.40;;;;;;5018204;28;20041;-78
2021/05/21 12:29:13;;;;;;;3.53;1.23;;;23.00;43.90;;;;;;5024522;28;20386;-79
2021/05/21 12:32:00;;;;;;;4.28;1.20;;;23.00;44.20;;;;;;5032440;28;20142;-78
2021/05/21 12:34:44;;;;;;;6.85;1.50;;;22.90;44.50;;;;;;5028004;28;20044;-78
2021/05/21 12:37:27;;;;;;;6.30;1.20;;;22.80;44.80;;;;;;5025247;28;20096;-77
2021/05/21 12:40:13;;;;;;;8.37;1.50;;;22.80;44.80;;;;;;5033204;28;20381;-77
2021/05/21 12:42:57;;;;;;;2.20;1.33;;;22.70;45.00;;;;;;5019991;28;20296;-77
2021/05/21 12:46:04;;;;;;;3.28;1.70;;;22.70;45.50;;;;;;5021134;28;20444;-74
2021/05/21 12:48:51;;;;;;;2.47;1.40;;;22.60;45.70;;;;;;5029106;28;20052;-76
2021/05/21 12:51:35;;;;;;;4.25;1.50;;;22.50;45.40;;;;;;5025496;28;20056;-74
2021/05/21 12:54:27;;;;;;;4.25;1.67;;;22.60;45.50;;;;;;5031103;28;20472;-80
2021/05/21 12:57:19;;;;;;;9.10;2.00;;;22.50;45.50;;;;;;5021685;28;20057;-78
2021/05/21 13:00:05;;;;;;;9.68;1.35;;;22.50;46.10;;;;;;5030316;28;20037;-78
2021/05/21 13:02:55;;;;;;;5.93;1.77;;;22.40;46.10;;;;;;5030098;28;20104;-76
2021/05/21 13:05:40;;;;;;;4.00;1.60;;;22.50;46.10;;;;;;5030420;28;20440;-77
2021/05/21 13:08:24;;;;;;;8.95;1.52;;;22.50;46.30;;;;;;5026731;28;20127;-76
2021/05/21 13:11:08;;;;;;;2.33;1.40;;;22.60;46.20;;;;;;5014147;28;20394;-77
2021/05/21 13:14:00;;;;;;;10.15;1.42;;;22.80;46.30;;;;;;5014017;28;20041;-76
2021/05/21 13:16:51;;;;;;;5.30;1.63;;;23.00;46.10;;;;;;5028050;28;20060;-77
2021/05/21 13:19:44;;;;;;;2.88;1.45;;;23.10;45.90;;;;;;5018722;28;20560;-77
2021/05/21 13:22:30;;;;;;;5.07;1.52;;;23.20;45.30;;;;;;5021685;28;20041;-77
2021/05/21 13:25:15;;;;;;;6.13;1.63;;;23.30;45.10;;;;;;5015973;28;20076;-78
2021/05/21 13:28:01;;;;;;;2.13;1.10;;;23.40;45.00;;;;;;5024992;28;20071;-77
2021/05/21 13:30:45;;;;;;;4.93;1.65;;;23.40;44.70;;;;;;5024055;28;20091;-77
2021/05/21 13:33:29;;;;;;;3.97;1.50;;;23.60;45.10;;;;;;5022222;28;20079;-78
2021/05/21 13:36:13;;;;;;;2.53;1.23;;;23.70;44.60;;;;;;5021840;28;20041;-78
2021/05/21 13:38:57;;;;;;;2.97;1.30;;;23.70;44.40;;;;;;5009539;28;20088;-77
2021/05/21 13:41:41;;;;;;;2.55;1.23;;;23.70;43.90;;;;;;5030371;28;20387;-78
2021/05/21 13:44:25;;;;;;;3.78;1.60;;;23.60;43.70;;;;;;5029897;28;20091;-77
2021/05/21 13:47:09;;;;;;;4.85;1.27;;;23.50;43.90;;;;;;5027558;28;20624;-77
2021/05/21 13:49:53;;;;;;;3.05;1.23;;;23.40;43.80;;;;;;5032196;28;20044;-77
2021/05/21 13:52:37;;;;;;;4.13;1.40;;;23.40;44.90;;;;;;5013795;28;20056;-75
2021/05/21 13:55:21;;;;;;;6.20;1.48;;;23.50;45.60;;;;;;5012809;28;20102;-79
2021/05/21 13:58:05;;;;;;;6.05;1.40;;;23.50;44.90;;;;;;5027533;28;20040;-78
2021/05/21 14:00:49;;;;;;;3.40;1.27;;;23.50;44.20;;;;;;5018098;28;20121;-75
2021/05/21 14:03:36;;;;;;;3.38;1.50;;;23.40;44.10;;;;;;5027428;28;20052;-77
2021/05/21 14:06:21;;;;;;;3.00;1.42;;;23.20;44.30;;;;;;5013595;28;20057;-78
2021/05/21 14:09:05;;;;;;;3.38;1.55;;;23.10;44.10;;;;;;5012563;28;20041;-78
2021/05/21 14:11:49;;;;;;;8.55;1.85;;;22.90;43.90;;;;;;5019032;28;20040;-79
2021/05/21 14:14:33;;;;;;;5.85;1.40;;;22.80;44.10;;;;;;5032298;28;20099;-79
2021/05/21 14:17:17;;;;;;;2.60;1.27;;;22.70;46.50;;;;;;5029141;28;20043;-78
2021/05/21 14:20:02;;;;;;;1.90;1.30;;;22.60;47.60;;;;;;5016050;28;20045;-78